sensor_id;sensor_type;location;lat;lon;timestamp;pressure;altitude;pressure_sealevel;temperature;humidity
25084;BME280;13075;55.682;37.564;2023-04-07T00:01:59;100382.19;;;9.74;44.47
25084;BME280;13075;55.682;37.564;2023-04-07T00:04:25;100385.16;;;9.49;44.85
25084;BME280;13075;55.682;37.564;2023-04-07T00:06:50;100376.22;;;9.17;45.49
25084;BME280;13075;55.682;37.564;2023-04-07T00:09:16;100384.09;;;9.11;45.43
25084;BME280;13075;55.682;37.564;2023-04-07T00:11:41;100378.13;;;8.93;46.03
25084;BME280;13075;55.682;37.564;2023-04-07T00:14:07;100374.59;;;8.92;46.21
25084;BME280;13075;55.682;37.564;2023-04-07T00:16:33;100378.59;;;8.80;46.09
25084;BME280;13075;55.682;37.564;2023-04-07T00:18:58;100380.09;;;8.99;45.95
25084;BME280;13075;55.682;37.564;2023-04-07T00:21:24;100380.91;;;9.15;45.66
25084;BME280;13075;55.682;37.564;2023-04-07T00:23:51;100379.53;;;9.19;45.62
25084;BME280;13075;55.682;37.564;2023-04-07T00:26:16;100368.97;;;8.71;46.50
25084;BME280;13075;55.682;37.564;2023-04-07T00:28:43;100370.59;;;8.88;45.96
25084;BME280;13075;55.682;37.564;2023-04-07T00:31:08;100383.44;;;8.52;46.34
25084;BME280;13075;55.682;37.564;2023-04-07T00:33:33;100382.72;;;9.23;45.92
25084;BME280;13075;55.682;37.564;2023-04-07T00:35:59;100386.63;;;8.48;46.29
25084;BME280;13075;55.682;37.564;2023-04-07T00:38:24;100384.31;;;8.77;46.73
25084;BME280;13075;55.682;37.564;2023-04-07T00:40:56;100387.97;;;8.84;46.47
25084;BME280;13075;55.682;37.564;2023-04-07T00:43:21;100382.47;;;8.69;46.49
25084;BME280;13075;55.682;37.564;2023-04-07T00:45:47;100374.28;;;8.63;46.68
25084;BME280;13075;55.682;37.564;2023-04-07T00:48:12;100384.78;;;8.89;46.36
25084;BME280;13075;55.682;37.564;2023-04-07T00:50:38;100380.13;;;8.58;46.76
25084;BME280;13075;55.682;37.564;2023-04-07T00:53:04;100381.44;;;8.95;46.43
25084;BME280;13075;55.682;37.564;2023-04-07T00:55:29;100373.59;;;8.93;46.41
25084;BME280;13075;55.682;37.564;2023-04-07T00:57:55;100376.63;;;8.74;46.55
25084;BME280;13075;55.682;37.564;2023-04-07T01:03:09;100385.63;;;8.57;46.88
25084;BME280;13075;55.682;37.564;2023-04-07T01:05:41;100383.09;;;8.31;47.28
25084;BME280;13075;55.682;37.564;2023-04-07T01:08:15;100380.63;;;8.70;46.65
25084;BME280;13075;55.682;37.564;2023-04-07T01:10:49;100385.44;;;8.91;46.57
25084;BME280;13075;55.682;37.564;2023-04-07T01:13:21;100384.13;;;8.62;46.95
25084;BME280;13075;55.682;37.564;2023-04-07T01:15:50;100392.88;;;8.14;47.89
25084;BME280;13075;55.682;37.564;2023-04-07T01:18:23;100385.81;;;8.63;47.27
25084;BME280;13075;55.682;37.564;2023-04-07T01:20:50;100389.28;;;8.56;46.88
25084;BME280;13075;55.682;37.564;2023-04-07T01:23:22;100388.63;;;8.54;46.95
25084;BME280;13075;55.682;37.564;2023-04-07T01:25:58;100385.72;;;8.15;47.48
25084;BME280;13075;55.682;37.564;2023-04-07T01:30:53;100396.00;;;7.94;48.20
25084;BME280;13075;55.682;37.564;2023-04-07T01:33:21;100395.25;;;8.26;47.76
25084;BME280;13075;55.682;37.564;2023-04-07T01:35:47;100387.03;;;8.11;47.79
25084;BME280;13075;55.682;37.564;2023-04-07T01:38:14;100384.91;;;8.23;47.70
25084;BME280;13075;55.682;37.564;2023-04-07T01:40:40;100386.63;;;8.48;47.28
25084;BME280;13075;55.682;37.564;2023-04-07T01:43:06;100383.59;;;8.75;46.89
25084;BME280;13075;55.682;37.564;2023-04-07T01:45:33;100387.47;;;8.56;47.09
25084;BME280;13075;55.682;37.564;2023-04-07T01:48:00;100387.78;;;8.45;47.08
25084;BME280;13075;55.682;37.564;2023-04-07T01:50:25;100383.78;;;8.49;47.15
25084;BME280;13075;55.682;37.564;2023-04-07T01:52:52;100387.13;;;8.35;47.47
25084;BME280;13075;55.682;37.564;2023-04-07T01:55:18;100382.25;;;8.23;47.46
25084;BME280;13075;55.682;37.564;2023-04-07T01:58:02;100375.53;;;8.10;48.16
25084;BME280;13075;55.682;37.564;2023-04-07T02:00:28;100389.66;;;7.87;48.72
25084;BME280;13075;55.682;37.564;2023-04-07T02:02:54;100385.53;;;8.08;48.27
25084;BME280;13075;55.682;37.564;2023-04-07T02:05:23;100389.44;;;8.30;47.89
25084;BME280;13075;55.682;37.564;2023-04-07T02:07:57;100389.81;;;8.51;47.42
25084;BME280;13075;55.682;37.564;2023-04-07T02:10:24;100387.13;;;8.35;47.90
25084;BME280;13075;55.682;37.564;2023-04-07T02:12:55;100395.28;;;8.58;47.80
25084;BME280;13075;55.682;37.564;2023-04-07T02:15:21;100388.78;;;8.52;47.45
25084;BME280;13075;55.682;37.564;2023-04-07T02:17:48;100395.19;;;8.01;48.57
25084;BME280;13075;55.682;37.564;2023-04-07T02:20:16;100389.72;;;7.61;49.16
25084;BME280;13075;55.682;37.564;2023-04-07T02:22:42;100394.28;;;7.85;48.75
25084;BME280;13075;55.682;37.564;2023-04-07T02:28:05;100391.78;;;7.75;49.30
25084;BME280;13075;55.682;37.564;2023-04-07T02:30:31;100396.84;;;7.94;48.83
25084;BME280;13075;55.682;37.564;2023-04-07T02:32:56;100390.31;;;7.13;49.67
25084;BME280;13075;55.682;37.564;2023-04-07T02:35:22;100396.44;;;7.73;49.39
25084;BME280;13075;55.682;37.564;2023-04-07T02:37:48;100389.38;;;8.14;48.85
25084;BME280;13075;55.682;37.564;2023-04-07T02:40:14;100393.84;;;7.97;48.81
25084;BME280;13075;55.682;37.564;2023-04-07T02:42:40;100401.50;;;8.00;48.98
25084;BME280;13075;55.682;37.564;2023-04-07T02:45:06;100387.56;;;8.14;48.69
25084;BME280;13075;55.682;37.564;2023-04-07T02:47:32;100392.88;;;8.14;48.83
25084;BME280;13075;55.682;37.564;2023-04-07T02:49:58;100401.09;;;8.37;48.48
25084;BME280;13075;55.682;37.564;2023-04-07T02:52:23;100393.28;;;8.28;48.46
25084;BME280;13075;55.682;37.564;2023-04-07T02:54:50;100407.50;;;8.10;48.69
25084;BME280;13075;55.682;37.564;2023-04-07T02:57:19;100398.06;;;8.24;48.72
25084;BME280;13075;55.682;37.564;2023-04-07T02:59:45;100406.75;;;7.76;49.65
25084;BME280;13075;55.682;37.564;2023-04-07T03:02:12;100407.97;;;7.82;49.34
25084;BME280;13075;55.682;37.564;2023-04-07T03:04:38;100408.03;;;7.56;49.80
25084;BME280;13075;55.682;37.564;2023-04-07T03:07:03;100394.72;;;8.14;48.89
25084;BME280;13075;55.682;37.564;2023-04-07T03:09:30;100413.81;;;7.93;49.13
25084;BME280;13075;55.682;37.564;2023-04-07T03:11:56;100407.44;;;8.28;48.54
25084;BME280;13075;55.682;37.564;2023-04-07T03:14:24;100411.75;;;8.29;48.42
25084;BME280;13075;55.682;37.564;2023-04-07T03:16:49;100420.03;;;8.10;48.73
25084;BME280;13075;55.682;37.564;2023-04-07T03:19:15;100413.19;;;8.15;48.97
25084;BME280;13075;55.682;37.564;2023-04-07T03:21:44;100420.28;;;7.91;49.27
25084;BME280;13075;55.682;37.564;2023-04-07T03:24:09;100410.28;;;7.77;49.67
25084;BME280;13075;55.682;37.564;2023-04-07T03:26:35;100416.09;;;8.30;48.85
25084;BME280;13075;55.682;37.564;2023-04-07T03:29:02;100422.09;;;7.82;49.36
25084;BME280;13075;55.682;37.564;2023-04-07T03:31:29;100417.41;;;8.18;48.90
25084;BME280;13075;55.682;37.564;2023-04-07T03:33:55;100427.34;;;8.08;48.69
25084;BME280;13075;55.682;37.564;2023-04-07T03:36:21;100416.25;;;8.29;48.83
25084;BME280;13075;55.682;37.564;2023-04-07T03:38:47;100427.47;;;8.81;48.13
25084;BME280;13075;55.682;37.564;2023-04-07T03:41:14;100437.16;;;8.82;47.67
25084;BME280;13075;55.682;37.564;2023-04-07T03:43:39;100434.50;;;8.15;48.19
25084;BME280;13075;55.682;37.564;2023-04-07T03:46:05;100433.53;;;8.16;48.87
25084;BME280;13075;55.682;37.564;2023-04-07T03:48:31;100442.88;;;8.21;48.57
25084;BME280;13075;55.682;37.564;2023-04-07T03:51:02;100446.72;;;8.26;48.58
25084;BME280;13075;55.682;37.564;2023-04-07T03:53:29;100439.78;;;8.41;48.27
25084;BME280;13075;55.682;37.564;2023-04-07T03:55:56;100434.38;;;8.17;48.98
25084;BME280;13075;55.682;37.564;2023-04-07T03:58:42;100438.97;;;8.41;48.36
25084;BME280;13075;55.682;37.564;2023-04-07T04:01:13;100443.13;;;8.43;48.45
25084;BME280;13075;55.682;37.564;2023-04-07T04:03:41;100440.44;;;8.35;48.21
25084;BME280;13075;55.682;37.564;2023-04-07T04:06:18;100448.00;;;8.14;48.52
25084;BME280;13075;55.682;37.564;2023-04-07T04:08:45;100455.25;;;8.30;48.47
25084;BME280;13075;55.682;37.564;2023-04-07T04:11:11;100443.38;;;8.24;48.57
25084;BME280;13075;55.682;37.564;2023-04-07T04:13:44;100451.16;;;8.09;48.78
25084;BME280;13075;55.682;37.564;2023-04-07T04:16:10;100448.63;;;8.58;48.59
25084;BME280;13075;55.682;37.564;2023-04-07T04:18:37;100445.91;;;11.67;43.62
25084;BME280;13075;55.682;37.564;2023-04-07T04:21:04;100434.41;;;11.81;42.27
25084;BME280;13075;55.682;37.564;2023-04-07T04:23:31;100438.72;;;11.82;41.86
25084;BME280;13075;55.682;37.564;2023-04-07T04:25:57;100449.97;;;10.96;42.77
25084;BME280;13075;55.682;37.564;2023-04-07T04:28:25;100441.31;;;11.90;41.69
25084;BME280;13075;55.682;37.564;2023-04-07T04:30:52;100442.13;;;13.04;40.00
25084;BME280;13075;55.682;37.564;2023-04-07T04:33:18;100440.44;;;13.80;38.17
25084;BME280;13075;55.682;37.564;2023-04-07T04:36:02;100433.31;;;14.87;36.50
25084;BME280;13075;55.682;37.564;2023-04-07T04:38:29;100430.88;;;16.59;34.40
25084;BME280;13075;55.682;37.564;2023-04-07T04:41:11;100438.72;;;15.59;34.06
25084;BME280;13075;55.682;37.564;2023-04-07T04:43:37;100441.59;;;14.12;36.64
25084;BME280;13075;55.682;37.564;2023-04-07T04:46:04;100447.53;;;12.83;38.89
25084;BME280;13075;55.682;37.564;2023-04-07T04:48:34;100452.25;;;12.60;39.41
25084;BME280;13075;55.682;37.564;2023-04-07T04:51:03;100446.19;;;14.91;36.91
25084;BME280;13075;55.682;37.564;2023-04-07T04:53:29;100434.59;;;18.18;32.88
25084;BME280;13075;55.682;37.564;2023-04-07T04:55:58;100432.72;;;20.69;29.63
25084;BME280;13075;55.682;37.564;2023-04-07T04:58:34;100438.47;;;21.00;28.00
25084;BME280;13075;55.682;37.564;2023-04-07T05:01:00;100447.31;;;17.99;31.05
25084;BME280;13075;55.682;37.564;2023-04-07T05:03:39;100443.34;;;20.02;29.08
25084;BME280;13075;55.682;37.564;2023-04-07T05:06:12;100446.91;;;19.79;29.48
25084;BME280;13075;55.682;37.564;2023-04-07T05:08:40;100436.59;;;21.18;28.29
25084;BME280;13075;55.682;37.564;2023-04-07T05:11:06;100440.47;;;21.22;27.17
25084;BME280;13075;55.682;37.564;2023-04-07T05:13:33;100441.19;;;22.54;26.52
25084;BME280;13075;55.682;37.564;2023-04-07T05:16:01;100440.22;;;23.97;25.63
25084;BME280;13075;55.682;37.564;2023-04-07T05:18:28;100438.88;;;22.41;26.31
25084;BME280;13075;55.682;37.564;2023-04-07T05:20:54;100441.66;;;21.81;26.26
25084;BME280;13075;55.682;37.564;2023-04-07T05:23:21;100450.53;;;21.38;27.19
25084;BME280;13075;55.682;37.564;2023-04-07T05:25:48;100437.88;;;21.65;26.70
25084;BME280;13075;55.682;37.564;2023-04-07T05:28:14;100454.41;;;20.24;27.22
25084;BME280;13075;55.682;37.564;2023-04-07T05:30:39;100457.13;;;20.24;27.90
25084;BME280;13075;55.682;37.564;2023-04-07T05:33:05;100446.38;;;22.50;26.27
25084;BME280;13075;55.682;37.564;2023-04-07T05:35:50;100447.16;;;25.42;23.71
25084;BME280;13075;55.682;37.564;2023-04-07T05:38:16;100442.13;;;26.58;22.42
25084;BME280;13075;55.682;37.564;2023-04-07T05:40:42;100444.13;;;23.64;23.98
25084;BME280;13075;55.682;37.564;2023-04-07T05:43:10;100461.25;;;20.15;27.64
25084;BME280;13075;55.682;37.564;2023-04-07T05:45:37;100449.28;;;19.64;28.86
25084;BME280;13075;55.682;37.564;2023-04-07T05:48:03;100460.19;;;19.11;29.25
25084;BME280;13075;55.682;37.564;2023-04-07T05:50:37;100456.13;;;19.78;28.88
25084;BME280;13075;55.682;37.564;2023-04-07T05:53:06;100453.91;;;21.11;26.97
25084;BME280;13075;55.682;37.564;2023-04-07T05:55:31;100459.47;;;25.04;24.26
25084;BME280;13075;55.682;37.564;2023-04-07T05:57:57;100447.63;;;28.65;21.24
25084;BME280;13075;55.682;37.564;2023-04-07T06:00:26;100452.78;;;29.41;20.23
25084;BME280;13075;55.682;37.564;2023-04-07T06:03:01;100446.88;;;29.93;19.65
25084;BME280;13075;55.682;37.564;2023-04-07T06:05:31;100438.69;;;29.56;19.26
25084;BME280;13075;55.682;37.564;2023-04-07T06:07:56;100425.81;;;33.36;17.67
25084;BME280;13075;55.682;37.564;2023-04-07T06:10:25;100442.75;;;33.51;17.05
25084;BME280;13075;55.682;37.564;2023-04-07T06:12:50;100438.63;;;34.41;16.05
25084;BME280;13075;55.682;37.564;2023-04-07T06:15:16;100447.41;;;31.30;17.75
25084;BME280;13075;55.682;37.564;2023-04-07T06:17:41;100460.22;;;26.00;21.09
25084;BME280;13075;55.682;37.564;2023-04-07T06:20:09;100453.53;;;23.78;23.20
25084;BME280;13075;55.682;37.564;2023-04-07T06:22:35;100453.44;;;24.10;22.92
25084;BME280;13075;55.682;37.564;2023-04-07T06:25:00;100455.19;;;27.54;20.43
25084;BME280;13075;55.682;37.564;2023-04-07T06:27:26;100451.31;;;30.71;18.97
25084;BME280;13075;55.682;37.564;2023-04-07T06:29:52;100441.19;;;33.16;17.43
25084;BME280;13075;55.682;37.564;2023-04-07T06:32:18;100443.41;;;35.24;15.95
25084;BME280;13075;55.682;37.564;2023-04-07T06:34:44;100439.53;;;32.98;17.06
25084;BME280;13075;55.682;37.564;2023-04-07T06:37:10;100458.47;;;29.12;19.42
25084;BME280;13075;55.682;37.564;2023-04-07T06:39:35;100443.91;;;33.42;16.99
25084;BME280;13075;55.682;37.564;2023-04-07T06:42:02;100440.19;;;32.60;17.11
25084;BME280;13075;55.682;37.564;2023-04-07T06:44:33;100453.09;;;29.99;18.43
25084;BME280;13075;55.682;37.564;2023-04-07T06:46:59;100450.69;;;28.58;19.78
25084;BME280;13075;55.682;37.564;2023-04-07T06:49:24;100457.00;;;28.82;19.58
25084;BME280;13075;55.682;37.564;2023-04-07T06:51:50;100454.25;;;33.07;17.29
25084;BME280;13075;55.682;37.564;2023-04-07T06:54:15;100451.72;;;35.12;15.97
25084;BME280;13075;55.682;37.564;2023-04-07T06:56:41;100449.84;;;35.93;15.34
25084;BME280;13075;55.682;37.564;2023-04-07T06:59:06;100450.13;;;34.31;16.06
25084;BME280;13075;55.682;37.564;2023-04-07T07:01:32;100448.66;;;33.96;16.27
25084;BME280;13075;55.682;37.564;2023-04-07T07:03:58;100449.59;;;34.38;15.63
25084;BME280;13075;55.682;37.564;2023-04-07T07:06:25;100436.94;;;37.13;14.83
25084;BME280;13075;55.682;37.564;2023-04-07T07:08:51;100445.59;;;39.79;13.52
25084;BME280;13075;55.682;37.564;2023-04-07T07:11:17;100440.00;;;39.38;13.23
25084;BME280;13075;55.682;37.564;2023-04-07T07:13:42;100438.72;;;40.00;13.40
25084;BME280;13075;55.682;37.564;2023-04-07T07:16:09;100440.59;;;41.30;11.91
25084;BME280;13075;55.682;37.564;2023-04-07T07:18:34;100433.09;;;41.78;12.46
25084;BME280;13075;55.682;37.564;2023-04-07T07:21:01;100434.16;;;41.67;12.93
25084;BME280;13075;55.682;37.564;2023-04-07T07:23:26;100433.13;;;43.05;11.85
25084;BME280;13075;55.682;37.564;2023-04-07T07:25:52;100435.59;;;41.90;12.46
25084;BME280;13075;55.682;37.564;2023-04-07T07:28:17;100441.63;;;43.22;11.28
25084;BME280;13075;55.682;37.564;2023-04-07T07:30:42;100434.41;;;41.51;12.18
25084;BME280;13075;55.682;37.564;2023-04-07T07:33:08;100436.22;;;40.99;12.39
25084;BME280;13075;55.682;37.564;2023-04-07T07:35:33;100428.09;;;44.13;11.09
25084;BME280;13075;55.682;37.564;2023-04-07T07:37:59;100441.31;;;44.40;11.12
25084;BME280;13075;55.682;37.564;2023-04-07T07:40:25;100430.03;;;43.38;11.04
25084;BME280;13075;55.682;37.564;2023-04-07T07:42:50;100434.13;;;42.07;11.18
25084;BME280;13075;55.682;37.564;2023-04-07T07:45:16;100432.44;;;40.32;12.23
25084;BME280;13075;55.682;37.564;2023-04-07T07:47:43;100431.63;;;36.96;13.15
25084;BME280;13075;55.682;37.564;2023-04-07T07:50:09;100435.19;;;37.36;13.52
25084;BME280;13075;55.682;37.564;2023-04-07T07:52:34;100433.47;;;38.92;13.35
25084;BME280;13075;55.682;37.564;2023-04-07T07:55:00;100432.94;;;38.01;13.21
25084;BME280;13075;55.682;37.564;2023-04-07T07:57:26;100435.28;;;33.35;15.10
25084;BME280;13075;55.682;37.564;2023-04-07T07:59:51;100434.63;;;36.63;14.19
25084;BME280;13075;55.682;37.564;2023-04-07T08:02:17;100429.47;;;37.17;14.05
25084;BME280;13075;55.682;37.564;2023-04-07T08:04:42;100439.19;;;36.56;13.69
25084;BME280;13075;55.682;37.564;2023-04-07T08:07:08;100417.31;;;39.04;12.75
25084;BME280;13075;55.682;37.564;2023-04-07T08:09:33;100442.00;;;34.26;14.97
25084;BME280;13075;55.682;37.564;2023-04-07T08:11:59;100437.69;;;29.65;17.21
25084;BME280;13075;55.682;37.564;2023-04-07T08:14:24;100422.13;;;34.66;14.76
25084;BME280;13075;55.682;37.564;2023-04-07T08:16:50;100424.06;;;35.96;14.01
25084;BME280;13075;55.682;37.564;2023-04-07T08:19:15;100433.06;;;31.50;15.59
25084;BME280;13075;55.682;37.564;2023-04-07T08:21:41;100451.75;;;27.39;18.62
25084;BME280;13075;55.682;37.564;2023-04-07T08:24:07;100443.03;;;24.79;20.50
25084;BME280;13075;55.682;37.564;2023-04-07T08:26:32;100440.69;;;23.79;22.04
25084;BME280;13075;55.682;37.564;2023-04-07T08:28:58;100453.28;;;22.14;22.96
25084;BME280;13075;55.682;37.564;2023-04-07T08:31:23;100454.44;;;20.97;24.46
25084;BME280;13075;55.682;37.564;2023-04-07T08:33:49;100443.88;;;20.27;25.04
25084;BME280;13075;55.682;37.564;2023-04-07T08:36:20;100449.91;;;20.18;25.70
25084;BME280;13075;55.682;37.564;2023-04-07T08:38:46;100443.66;;;20.06;25.93
25084;BME280;13075;55.682;37.564;2023-04-07T08:41:12;100442.50;;;19.90;26.24
25084;BME280;13075;55.682;37.564;2023-04-07T08:43:38;100452.34;;;20.42;25.69
25084;BME280;13075;55.682;37.564;2023-04-07T08:46:04;100439.53;;;20.99;24.98
25084;BME280;13075;55.682;37.564;2023-04-07T08:48:30;100434.47;;;21.74;24.42
25084;BME280;13075;55.682;37.564;2023-04-07T08:51:03;100437.53;;;21.78;24.42
25084;BME280;13075;55.682;37.564;2023-04-07T08:53:31;100435.72;;;22.05;23.68
25084;BME280;13075;55.682;37.564;2023-04-07T08:56:00;100433.91;;;22.11;23.86
25084;BME280;13075;55.682;37.564;2023-04-07T08:58:26;100433.63;;;22.82;22.82
25084;BME280;13075;55.682;37.564;2023-04-07T09:00:52;100439.72;;;21.26;24.47
25084;BME280;13075;55.682;37.564;2023-04-07T09:03:17;100436.19;;;21.81;23.46
25084;BME280;13075;55.682;37.564;2023-04-07T09:05:44;100437.81;;;22.20;23.13
25084;BME280;13075;55.682;37.564;2023-04-07T09:08:10;100451.03;;;20.45;23.87
25084;BME280;13075;55.682;37.564;2023-04-07T09:10:35;100441.50;;;20.87;24.09
25084;BME280;13075;55.682;37.564;2023-04-07T09:13:01;100435.81;;;21.05;24.24
25084;BME280;13075;55.682;37.564;2023-04-07T09:15:30;100443.19;;;20.09;24.71
25084;BME280;13075;55.682;37.564;2023-04-07T09:17:56;100436.84;;;19.22;25.61
25084;BME280;13075;55.682;37.564;2023-04-07T09:20:21;100435.22;;;19.67;25.51
25084;BME280;13075;55.682;37.564;2023-04-07T09:22:47;100441.81;;;18.72;26.37
25084;BME280;13075;55.682;37.564;2023-04-07T09:27:40;100444.22;;;18.32;26.94
25084;BME280;13075;55.682;37.564;2023-04-07T09:30:12;100441.06;;;17.63;27.51
25084;BME280;13075;55.682;37.564;2023-04-07T09:32:41;100430.63;;;19.68;26.03
25084;BME280;13075;55.682;37.564;2023-04-07T09:35:06;100439.50;;;21.11;24.52
25084;BME280;13075;55.682;37.564;2023-04-07T09:37:32;100423.69;;;22.01;23.48
25084;BME280;13075;55.682;37.564;2023-04-07T09:39:57;100428.41;;;23.39;22.23
25084;BME280;13075;55.682;37.564;2023-04-07T09:42:23;100437.00;;;21.09;23.92
25084;BME280;13075;55.682;37.564;2023-04-07T09:44:50;100451.66;;;18.37;26.22
25084;BME280;13075;55.682;37.564;2023-04-07T09:47:16;100439.97;;;18.54;26.27
25084;BME280;13075;55.682;37.564;2023-04-07T09:49:49;100437.50;;;18.53;26.77
25084;BME280;13075;55.682;37.564;2023-04-07T09:52:16;100434.19;;;18.81;26.63
25084;BME280;13075;55.682;37.564;2023-04-07T09:54:44;100442.56;;;20.18;24.79
25084;BME280;13075;55.682;37.564;2023-04-07T09:57:11;100431.31;;;21.11;24.68
25084;BME280;13075;55.682;37.564;2023-04-07T09:59:37;100433.50;;;20.52;23.94
25084;BME280;13075;55.682;37.564;2023-04-07T10:02:04;100449.22;;;20.79;24.00
25084;BME280;13075;55.682;37.564;2023-04-07T10:04:30;100439.13;;;20.63;23.96
25084;BME280;13075;55.682;37.564;2023-04-07T10:06:56;100429.59;;;21.77;23.12
25084;BME280;13075;55.682;37.564;2023-04-07T10:09:22;100445.53;;;20.85;23.99
25084;BME280;13075;55.682;37.564;2023-04-07T10:11:51;100448.75;;;19.21;25.20
25084;BME280;13075;55.682;37.564;2023-04-07T10:14:18;100452.00;;;18.58;25.68
25084;BME280;13075;55.682;37.564;2023-04-07T10:16:43;100444.63;;;17.99;26.38
25084;BME280;13075;55.682;37.564;2023-04-07T10:19:10;100443.66;;;17.51;26.79
25084;BME280;13075;55.682;37.564;2023-04-07T10:21:38;100447.16;;;17.94;26.47
25084;BME280;13075;55.682;37.564;2023-04-07T10:26:29;100445.31;;;17.27;27.13
25084;BME280;13075;55.682;37.564;2023-04-07T10:28:58;100439.31;;;17.25;27.38
25084;BME280;13075;55.682;37.564;2023-04-07T10:31:25;100442.50;;;16.60;27.78
25084;BME280;13075;55.682;37.564;2023-04-07T10:33:52;100441.53;;;17.10;27.72
25084;BME280;13075;55.682;37.564;2023-04-07T10:36:18;100445.28;;;16.78;27.72
25084;BME280;13075;55.682;37.564;2023-04-07T10:41:38;100452.38;;;16.72;27.88
25084;BME280;13075;55.682;37.564;2023-04-07T10:44:04;100451.59;;;16.65;27.92
25084;BME280;13075;55.682;37.564;2023-04-07T10:49:11;100450.38;;;16.10;28.59
25084;BME280;13075;55.682;37.564;2023-04-07T10:51:40;100446.09;;;15.96;28.75
25084;BME280;13075;55.682;37.564;2023-04-07T10:54:16;100442.97;;;17.13;27.74
25084;BME280;13075;55.682;37.564;2023-04-07T10:59:26;100450.84;;;16.90;27.40
25084;BME280;13075;55.682;37.564;2023-04-07T11:02:08;100439.22;;;16.51;27.96
25084;BME280;13075;55.682;37.564;2023-04-07T11:04:38;100437.22;;;17.03;27.55
25084;BME280;13075;55.682;37.564;2023-04-07T11:07:03;100437.25;;;16.96;27.50
25084;BME280;13075;55.682;37.564;2023-04-07T11:09:29;100453.94;;;16.62;27.71
25084;BME280;13075;55.682;37.564;2023-04-07T11:11:54;100444.56;;;16.13;28.45
25084;BME280;13075;55.682;37.564;2023-04-07T11:14:24;100438.88;;;16.35;28.14
25084;BME280;13075;55.682;37.564;2023-04-07T11:16:51;100451.03;;;16.12;28.23
25084;BME280;13075;55.682;37.564;2023-04-07T11:19:17;100444.88;;;16.37;28.02
25084;BME280;13075;55.682;37.564;2023-04-07T11:21:43;100441.13;;;17.07;27.38
25084;BME280;13075;55.682;37.564;2023-04-07T11:24:08;100444.75;;;16.63;27.44
25084;BME280;13075;55.682;37.564;2023-04-07T11:26:38;100437.25;;;16.96;27.52
25084;BME280;13075;55.682;37.564;2023-04-07T11:29:03;100440.78;;;16.97;27.38
25084;BME280;13075;55.682;37.564;2023-04-07T11:31:29;100440.56;;;16.98;27.59
25084;BME280;13075;55.682;37.564;2023-04-07T11:33:56;100438.09;;;16.97;27.34
25084;BME280;13075;55.682;37.564;2023-04-07T11:38:52;100443.72;;;16.19;27.74
25084;BME280;13075;55.682;37.564;2023-04-07T11:41:18;100436.78;;;16.37;27.91
25084;BME280;13075;55.682;37.564;2023-04-07T11:43:44;100434.66;;;16.83;27.73
25084;BME280;13075;55.682;37.564;2023-04-07T11:46:13;100430.84;;;16.91;27.26
25084;BME280;13075;55.682;37.564;2023-04-07T11:48:39;100432.75;;;16.90;27.57
25084;BME280;13075;55.682;37.564;2023-04-07T11:51:05;100438.09;;;16.97;27.49
25084;BME280;13075;55.682;37.564;2023-04-07T11:53:35;100431.09;;;16.51;27.94
25084;BME280;13075;55.682;37.564;2023-04-07T11:56:03;100423.00;;;16.51;27.68
25084;BME280;13075;55.682;37.564;2023-04-07T11:58:30;100437.00;;;17.04;27.62
25084;BME280;13075;55.682;37.564;2023-04-07T12:00:56;100443.00;;;17.31;27.31
25084;BME280;13075;55.682;37.564;2023-04-07T12:03:22;100437.13;;;16.47;27.57
25084;BME280;13075;55.682;37.564;2023-04-07T12:05:48;100425.56;;;17.02;27.63
25084;BME280;13075;55.682;37.564;2023-04-07T12:08:13;100421.53;;;16.87;27.22
25084;BME280;13075;55.682;37.564;2023-04-07T12:10:41;100435.91;;;16.80;27.29
25084;BME280;13075;55.682;37.564;2023-04-07T12:13:07;100436.50;;;16.00;27.87
25084;BME280;13075;55.682;37.564;2023-04-07T12:15:33;100425.38;;;16.72;27.45
25084;BME280;13075;55.682;37.564;2023-04-07T12:17:58;100435.47;;;16.52;27.58
25084;BME280;13075;55.682;37.564;2023-04-07T12:20:25;100429.91;;;16.78;27.26
25084;BME280;13075;55.682;37.564;2023-04-07T12:22:51;100429.06;;;16.78;27.02
25084;BME280;13075;55.682;37.564;2023-04-07T12:25:16;100416.72;;;16.89;27.15
25084;BME280;13075;55.682;37.564;2023-04-07T12:27:42;100429.22;;;17.14;26.98
25084;BME280;13075;55.682;37.564;2023-04-07T12:30:07;100420.75;;;16.79;27.51
25084;BME280;13075;55.682;37.564;2023-04-07T12:32:33;100438.38;;;16.51;27.79
25084;BME280;13075;55.682;37.564;2023-04-07T12:34:59;100423.56;;;16.66;27.79
25084;BME280;13075;55.682;37.564;2023-04-07T12:37:25;100424.22;;;17.11;27.73
25084;BME280;13075;55.682;37.564;2023-04-07T12:39:50;100425.19;;;16.99;27.69
25084;BME280;13075;55.682;37.564;2023-04-07T12:42:16;100436.47;;;16.89;27.65
25084;BME280;13075;55.682;37.564;2023-04-07T12:44:41;100438.63;;;16.43;27.71
25084;BME280;13075;55.682;37.564;2023-04-07T12:47:07;100438.06;;;16.28;27.83
25084;BME280;13075;55.682;37.564;2023-04-07T12:49:32;100425.50;;;16.84;27.79
25084;BME280;13075;55.682;37.564;2023-04-07T12:51:58;100422.81;;;16.53;27.83
25084;BME280;13075;55.682;37.564;2023-04-07T12:54:24;100423.00;;;16.07;28.49
25084;BME280;13075;55.682;37.564;2023-04-07T12:56:49;100420.28;;;16.51;28.09
25084;BME280;13075;55.682;37.564;2023-04-07T12:59:15;100415.66;;;16.65;28.25
25084;BME280;13075;55.682;37.564;2023-04-07T13:01:41;100420.56;;;16.37;28.14
25084;BME280;13075;55.682;37.564;2023-04-07T13:04:06;100419.66;;;16.49;28.30
25084;BME280;13075;55.682;37.564;2023-04-07T13:06:32;100422.50;;;15.79;29.12